createdAt,value
2017-06-03T00:01:03.067Z,2.55
2017-06-03T00:03:31.361Z,2.75
2017-06-03T00:06:00.609Z,2.20
2017-06-03T00:08:28.894Z,2.22
2017-06-03T00:10:56.415Z,3.37
2017-06-03T00:13:23.916Z,3.65
2017-06-03T00:15:51.414Z,2.25
2017-06-03T00:18:18.956Z,2.33
2017-06-03T00:20:46.454Z,2.67
2017-06-03T00:23:13.955Z,2.15
2017-06-03T00:25:41.495Z,2.22
2017-06-03T00:28:09.970Z,1.85
2017-06-03T00:30:38.245Z,2.05
2017-06-03T00:33:07.019Z,2.80
2017-06-03T00:35:34.557Z,2.05
2017-06-03T00:38:02.075Z,2.08
2017-06-03T00:40:29.609Z,2.42
2017-06-03T00:42:57.111Z,2.60
2017-06-03T00:45:25.239Z,2.55
2017-06-03T00:47:52.754Z,2.62
2017-06-03T00:50:20.264Z,1.85
2017-06-03T00:52:47.775Z,2.37
2017-06-03T00:55:15.293Z,2.45
2017-06-03T00:57:43.587Z,3.60
2017-06-03T01:00:11.223Z,2.47
2017-06-03T01:02:39.498Z,2.50
2017-06-03T01:05:07.794Z,2.40
2017-06-03T01:07:35.309Z,2.65
2017-06-03T01:10:02.830Z,2.10
2017-06-03T01:12:30.332Z,2.28
2017-06-03T01:14:57.857Z,2.67
2017-06-03T01:17:25.380Z,2.72
2017-06-03T01:19:52.892Z,2.50
2017-06-03T01:22:21.678Z,2.78
2017-06-03T01:24:50.254Z,2.87
2017-06-03T01:27:19.510Z,2.95
2017-06-03T01:29:47.263Z,3.12
2017-06-03T01:32:16.759Z,2.50
2017-06-03T01:34:44.479Z,2.33
2017-06-03T01:37:12.027Z,2.37
2017-06-03T01:39:39.542Z,2.75
2017-06-03T01:42:07.065Z,3.05
2017-06-03T01:44:34.562Z,4.10
2017-06-03T01:47:02.072Z,3.90
2017-06-03T01:49:29.580Z,3.75
2017-06-03T01:51:57.119Z,2.45
2017-06-03T01:54:24.644Z,3.20
2017-06-03T01:56:52.168Z,3.05
2017-06-03T01:59:20.445Z,2.33
2017-06-03T02:01:48.714Z,2.50
2017-06-03T02:04:16.201Z,2.67
2017-06-03T02:06:43.959Z,3.55
2017-06-03T02:09:11.481Z,2.40
2017-06-03T02:11:38.988Z,3.05
2017-06-03T02:14:06.554Z,2.40
2017-06-03T02:16:35.048Z,4.60
2017-06-03T02:19:02.568Z,3.00
2017-06-03T02:21:30.863Z,2.75
2017-06-03T02:23:58.383Z,2.97
2017-06-03T02:26:25.886Z,4.10
2017-06-03T02:28:53.386Z,2.58
2017-06-03T02:31:20.902Z,2.70
2017-06-03T02:33:48.402Z,2.47
2017-06-03T02:36:15.919Z,3.20
2017-06-03T02:38:43.447Z,2.78
2017-06-03T02:41:11.061Z,2.70
2017-06-03T02:43:38.570Z,2.72
2017-06-03T02:46:06.077Z,3.05
2017-06-03T02:48:33.607Z,2.80
2017-06-03T02:51:01.119Z,2.58
2017-06-03T02:53:28.679Z,2.30
2017-06-03T02:55:56.194Z,2.45
2017-06-03T02:58:23.695Z,3.50
2017-06-03T03:00:51.233Z,3.05
2017-06-03T03:03:18.775Z,3.22
2017-06-03T03:05:46.396Z,3.40
2017-06-03T03:08:13.924Z,3.40
2017-06-03T03:10:41.635Z,2.95
2017-06-03T03:13:09.926Z,2.20
2017-06-03T03:15:38.175Z,2.22
2017-06-03T03:18:05.674Z,2.00
2017-06-03T03:20:33.172Z,2.65
2017-06-03T03:23:00.698Z,2.75
2017-06-03T03:25:28.205Z,2.75
2017-06-03T03:27:55.994Z,3.30
2017-06-03T03:30:23.526Z,2.28
2017-06-03T03:32:51.053Z,2.20
2017-06-03T03:35:18.576Z,2.95
2017-06-03T03:37:46.103Z,2.85
2017-06-03T03:40:13.642Z,2.97
2017-06-03T03:42:41.140Z,3.10
2017-06-03T03:45:08.721Z,2.00
2017-06-03T03:47:36.229Z,2.83
2017-06-03T03:50:03.751Z,2.55
2017-06-03T03:52:31.267Z,3.20
2017-06-03T03:54:59.668Z,2.37
2017-06-03T03:57:27.182Z,2.67
2017-06-03T03:59:54.698Z,3.35
2017-06-03T04:02:22.970Z,2.42
2017-06-03T04:04:51.251Z,2.85
2017-06-03T04:07:18.771Z,2.83
2017-06-03T04:09:46.278Z,2.85
2017-06-03T04:12:13.804Z,3.40
2017-06-03T04:14:41.318Z,2.30
2017-06-03T04:17:08.832Z,2.85
2017-06-03T04:19:36.353Z,2.90
2017-06-03T04:22:03.852Z,4.10
2017-06-03T04:24:32.113Z,2.67
2017-06-03T04:26:59.632Z,2.85
2017-06-03T04:29:27.266Z,3.62
2017-06-03T04:31:55.676Z,3.30
2017-06-03T04:34:23.188Z,3.28
2017-06-03T04:36:52.273Z,3.10
2017-06-03T04:39:19.787Z,3.25
2017-06-03T04:41:47.299Z,3.05
2017-06-03T04:44:14.806Z,3.20
2017-06-03T04:46:42.327Z,4.62
2017-06-03T04:49:10.584Z,3.62
2017-06-03T04:51:38.133Z,3.20
2017-06-03T04:54:05.659Z,3.40
2017-06-03T04:56:33.163Z,3.60
2017-06-03T04:59:00.702Z,3.45
2017-06-03T05:01:28.216Z,2.95
2017-06-03T05:03:55.780Z,3.15
2017-06-03T05:06:24.074Z,3.85
2017-06-03T05:08:51.590Z,3.45
2017-06-03T05:11:19.114Z,3.85
2017-06-03T05:13:46.604Z,3.28
2017-06-03T05:16:14.120Z,3.40
2017-06-03T05:18:41.682Z,3.40
2017-06-03T05:21:09.188Z,3.35
2017-06-03T05:23:36.695Z,3.72
2017-06-03T05:26:04.211Z,2.95
2017-06-03T05:28:31.721Z,2.90
2017-06-03T05:30:59.246Z,4.05
2017-06-03T05:33:26.785Z,3.37
2017-06-03T05:35:54.293Z,3.20
2017-06-03T05:38:21.787Z,3.28
2017-06-03T05:40:49.308Z,3.15
2017-06-03T05:43:17.070Z,3.47
2017-06-03T05:45:44.571Z,3.15
2017-06-03T05:48:12.099Z,2.90
2017-06-03T05:50:39.615Z,3.37
2017-06-03T05:53:07.121Z,2.90
2017-06-03T05:55:34.679Z,3.22
2017-06-03T05:58:02.201Z,4.95
2017-06-03T06:00:29.721Z,3.22
2017-06-03T06:02:57.289Z,2.70
2017-06-03T06:05:24.799Z,3.80
2017-06-03T06:07:52.307Z,3.35
2017-06-03T06:10:19.964Z,2.87
2017-06-03T06:12:47.491Z,2.90
2017-06-03T06:15:14.988Z,3.20
2017-06-03T06:17:42.509Z,2.40
2017-06-03T06:20:10.009Z,3.65
2017-06-03T06:22:37.515Z,3.65
2017-06-03T06:25:05.042Z,4.47
2017-06-03T06:27:32.558Z,3.22
2017-06-03T06:30:00.076Z,2.75
2017-06-03T06:32:27.871Z,3.33
2017-06-03T06:34:56.187Z,3.47
2017-06-03T06:37:23.724Z,3.60
2017-06-03T06:39:51.307Z,3.67
2017-06-03T06:42:18.817Z,3.20
2017-06-03T06:44:46.335Z,3.50
2017-06-03T06:47:13.861Z,3.00
2017-06-03T06:49:41.402Z,3.97
2017-06-03T06:52:08.919Z,2.58
2017-06-03T06:54:36.462Z,3.30
2017-06-03T06:57:03.968Z,4.05
2017-06-03T06:59:31.563Z,4.10
2017-06-03T07:01:59.068Z,2.70
2017-06-03T07:04:26.596Z,3.60
2017-06-03T07:06:54.101Z,2.95
2017-06-03T07:09:21.608Z,2.92
2017-06-03T07:11:49.158Z,2.55
2017-06-03T07:14:16.676Z,3.20
2017-06-03T07:16:44.196Z,3.65
2017-06-03T07:19:11.744Z,3.22
2017-06-03T07:21:39.267Z,2.95
2017-06-03T07:24:06.794Z,3.12
2017-06-03T07:26:35.087Z,2.80
2017-06-03T07:29:02.790Z,2.75
2017-06-03T07:31:30.303Z,3.40
2017-06-03T07:33:58.833Z,2.75
2017-06-03T07:36:26.346Z,3.12
2017-06-03T07:38:53.852Z,2.75
2017-06-03T07:41:21.367Z,3.08
2017-06-03T07:43:48.902Z,3.00
2017-06-03T07:46:16.417Z,2.95
2017-06-03T07:48:43.915Z,2.92
2017-06-03T07:51:11.423Z,2.80
2017-06-03T07:53:39.064Z,6.80
2017-06-03T07:56:06.656Z,3.00
2017-06-03T07:58:34.168Z,3.25
2017-06-03T08:01:01.718Z,3.00
2017-06-03T08:03:29.283Z,3.33
2017-06-03T08:05:56.790Z,2.78
2017-06-03T08:08:24.364Z,2.50
2017-06-03T08:10:51.908Z,3.20
2017-06-03T08:13:19.511Z,2.55
2017-06-03T08:15:47.026Z,3.05
2017-06-03T08:18:14.607Z,2.90
2017-06-03T08:20:42.152Z,2.85
2017-06-03T08:23:09.670Z,3.92
2017-06-03T08:25:37.943Z,3.50
2017-06-03T08:28:06.222Z,3.75
2017-06-03T08:30:34.502Z,3.47
2017-06-03T08:33:02.782Z,3.65
2017-06-03T08:35:31.039Z,3.08
2017-06-03T08:37:59.143Z,2.78
2017-06-03T08:40:26.671Z,2.95
2017-06-03T08:42:54.317Z,3.25
2017-06-03T08:45:22.058Z,3.72
2017-06-03T08:47:49.591Z,3.20
2017-06-03T08:50:18.162Z,2.55
2017-06-03T08:52:45.709Z,2.58
2017-06-03T08:55:13.283Z,2.80
2017-06-03T08:57:45.436Z,5.53
2017-06-03T09:00:13.005Z,3.25
2017-06-03T09:02:41.402Z,3.50
2017-06-03T09:05:08.902Z,2.53
2017-06-03T09:07:36.638Z,3.03
2017-06-03T09:10:04.171Z,2.60
2017-06-03T09:12:31.679Z,3.05
2017-06-03T09:14:59.193Z,2.67
2017-06-03T09:17:26.783Z,2.80
2017-06-03T09:19:54.291Z,3.10
2017-06-03T09:22:22.298Z,2.45
2017-06-03T09:24:49.835Z,3.00
2017-06-03T09:27:18.206Z,2.60
2017-06-03T09:29:45.781Z,3.47
2017-06-03T09:32:13.290Z,3.30
2017-06-03T09:34:40.843Z,3.25
2017-06-03T09:37:08.366Z,3.10
2017-06-03T09:39:35.868Z,3.00
2017-06-03T09:42:03.469Z,3.10
2017-06-03T09:44:31.767Z,3.40
2017-06-03T09:46:59.270Z,2.40
2017-06-03T09:49:26.795Z,2.85
2017-06-03T09:51:54.310Z,2.92
2017-06-03T09:54:21.826Z,2.92
2017-06-03T09:56:49.963Z,3.22
2017-06-03T09:59:17.459Z,3.00
2017-06-03T10:01:45.327Z,3.08
2017-06-03T10:04:12.858Z,2.70
2017-06-03T10:06:41.123Z,3.53
2017-06-03T10:09:09.411Z,3.10
2017-06-03T10:11:37.717Z,3.08
2017-06-03T10:14:05.235Z,3.45
2017-06-03T10:16:32.786Z,3.00
2017-06-03T10:19:01.080Z,2.90
2017-06-03T10:21:28.621Z,3.67
2017-06-03T10:23:56.538Z,2.75
2017-06-03T10:26:24.066Z,2.75
2017-06-03T10:28:51.618Z,2.75
2017-06-03T10:31:19.169Z,3.12
2017-06-03T10:33:46.662Z,3.12
2017-06-03T10:36:14.204Z,3.22
2017-06-03T10:38:41.732Z,3.37
2017-06-03T10:41:10.250Z,2.87
2017-06-03T10:43:38.623Z,3.28
2017-06-03T10:46:06.219Z,2.72
2017-06-03T10:48:33.737Z,2.90
2017-06-03T10:51:01.297Z,3.28
2017-06-03T10:53:29.573Z,3.00
2017-06-03T10:55:57.076Z,3.15
2017-06-03T10:58:24.641Z,5.18
2017-06-03T11:00:52.130Z,5.70
2017-06-03T11:03:20.751Z,5.35
2017-06-03T11:05:48.295Z,8.43
2017-06-03T11:08:15.807Z,4.87
2017-06-03T11:10:43.310Z,5.25
2017-06-03T11:13:11.286Z,7.72
2017-06-03T11:15:39.570Z,6.68
2017-06-03T11:18:07.885Z,5.65
2017-06-03T11:20:35.427Z,5.53
2017-06-03T11:23:03.059Z,6.97
2017-06-03T11:25:30.693Z,5.22
2017-06-03T11:27:58.190Z,5.22
2017-06-03T11:30:26.046Z,5.47
2017-06-03T11:32:53.526Z,6.97
2017-06-03T11:35:21.067Z,5.60
2017-06-03T11:37:48.583Z,6.30
2017-06-03T11:40:16.459Z,6.18
2017-06-03T11:42:44.022Z,6.32
2017-06-03T11:45:11.872Z,6.15
2017-06-03T11:47:39.379Z,5.07
2017-06-03T11:50:07.767Z,5.97
2017-06-03T11:52:35.295Z,5.50
2017-06-03T11:55:02.805Z,6.40
2017-06-03T11:57:30.319Z,5.65
2017-06-03T11:59:57.813Z,5.82
2017-06-03T12:02:25.344Z,5.35
2017-06-03T12:04:52.836Z,6.60
2017-06-03T12:07:20.376Z,5.65
2017-06-03T12:09:47.883Z,5.82
2017-06-03T12:12:15.404Z,5.75
2017-06-03T12:14:43.691Z,4.93
2017-06-03T12:17:11.230Z,5.80
2017-06-03T12:19:38.760Z,5.87
2017-06-03T12:22:06.277Z,7.60
2017-06-03T12:24:33.929Z,6.20
2017-06-03T12:27:01.514Z,7.40
2017-06-03T12:29:29.167Z,6.65
2017-06-03T12:31:56.695Z,5.05
2017-06-03T12:34:24.986Z,5.90
2017-06-03T12:36:53.278Z,5.53
2017-06-03T12:39:20.799Z,5.10
2017-06-03T12:41:48.345Z,6.43
2017-06-03T12:44:17.847Z,7.37
2017-06-03T12:46:45.416Z,5.85
2017-06-03T12:49:12.962Z,5.37
2017-06-03T12:51:40.471Z,7.53
2017-06-03T12:54:08.031Z,6.35
2017-06-03T12:56:35.544Z,5.78
2017-06-03T12:59:03.135Z,6.60
2017-06-03T13:01:30.717Z,6.60
2017-06-03T13:03:58.242Z,6.10
2017-06-03T13:06:25.978Z,5.70
2017-06-03T13:08:53.500Z,7.07
2017-06-03T13:11:21.002Z,6.55
2017-06-03T13:13:48.599Z,6.65
2017-06-03T13:16:16.879Z,5.30
2017-06-03T13:18:45.163Z,6.87
2017-06-03T13:21:13.474Z,5.30
2017-06-03T13:23:41.014Z,6.78
2017-06-03T13:26:08.558Z,6.90
2017-06-03T13:28:36.872Z,6.32
2017-06-03T13:31:04.407Z,5.60
2017-06-03T13:33:31.933Z,6.12
2017-06-03T13:35:59.422Z,5.65
2017-06-03T13:38:26.914Z,4.70
2017-06-03T13:40:54.433Z,6.05
2017-06-03T13:43:21.949Z,6.75
2017-06-03T13:45:49.447Z,5.72
2017-06-03T13:48:17.712Z,6.12
2017-06-03T13:50:46.023Z,6.22
2017-06-03T13:53:13.538Z,5.87
2017-06-03T13:55:41.042Z,5.72
2017-06-03T13:58:08.598Z,6.85
2017-06-03T14:00:36.378Z,8.40
2017-06-03T14:03:03.915Z,6.35
2017-06-03T14:05:31.441Z,6.62
2017-06-03T14:07:58.958Z,6.35
2017-06-03T14:10:26.510Z,6.10
2017-06-03T14:12:54.050Z,5.50
2017-06-03T14:15:21.574Z,4.82
2017-06-03T14:17:49.083Z,5.32
2017-06-03T14:20:16.597Z,7.10
2017-06-03T14:22:44.118Z,5.85
2017-06-03T14:25:11.694Z,6.03
2017-06-03T14:27:39.242Z,5.10
2017-06-03T14:30:06.747Z,4.22
2017-06-03T14:32:35.055Z,4.85
2017-06-03T14:35:02.603Z,5.32
2017-06-03T14:37:30.120Z,5.60
2017-06-03T14:39:57.624Z,7.03
2017-06-03T14:42:25.169Z,4.20
2017-06-03T14:44:52.683Z,5.18
2017-06-03T14:47:20.211Z,3.90
2017-06-03T14:49:47.741Z,4.72
2017-06-03T14:52:15.232Z,4.35
2017-06-03T14:54:42.752Z,4.50
2017-06-03T14:57:10.428Z,7.10
2017-06-03T14:59:38.761Z,4.28
2017-06-03T15:02:06.287Z,4.50
2017-06-03T15:04:33.812Z,4.43
2017-06-03T15:07:01.328Z,4.50
2017-06-03T15:09:28.842Z,4.10
2017-06-03T15:11:57.246Z,4.85
2017-06-03T15:14:24.799Z,3.95
2017-06-03T15:16:52.298Z,5.28
2017-06-03T15:19:19.882Z,3.78
2017-06-03T15:21:47.491Z,4.20
2017-06-03T15:24:15.006Z,3.40
2017-06-03T15:26:42.675Z,3.80
2017-06-03T15:29:10.183Z,4.18
2017-06-03T15:31:37.679Z,7.22
2017-06-03T15:34:05.236Z,3.70
2017-06-03T15:36:32.890Z,3.33
2017-06-03T15:39:00.413Z,5.15
2017-06-03T15:41:27.949Z,4.37
2017-06-03T15:43:56.235Z,5.55
2017-06-03T15:46:23.755Z,3.25
2017-06-03T15:48:51.310Z,4.57
2017-06-03T15:51:18.819Z,3.97
2017-06-03T15:53:46.370Z,4.90
2017-06-03T15:56:13.869Z,3.95
2017-06-03T15:58:41.381Z,4.07
2017-06-03T16:01:09.681Z,3.83
2017-06-03T16:03:37.219Z,4.10
2017-06-03T16:06:04.872Z,4.28
2017-06-03T16:08:32.415Z,5.20
2017-06-03T16:10:59.956Z,3.97
2017-06-03T16:13:27.499Z,4.30
2017-06-03T16:15:55.706Z,4.30
2017-06-03T16:18:23.218Z,3.25
2017-06-03T16:20:50.770Z,4.35
2017-06-03T16:23:18.508Z,4.35
2017-06-03T16:25:46.032Z,4.05
2017-06-03T16:28:13.533Z,4.25
2017-06-03T16:30:41.087Z,3.95
2017-06-03T16:33:08.664Z,4.30
2017-06-03T16:35:36.221Z,5.37
2017-06-03T16:38:03.773Z,3.65
2017-06-03T16:40:31.323Z,3.85
2017-06-03T16:42:58.817Z,5.50
2017-06-03T16:45:26.338Z,3.65
2017-06-03T16:47:53.909Z,3.80
2017-06-03T16:50:21.430Z,4.28
2017-06-03T16:52:49.095Z,4.87
2017-06-03T16:55:16.651Z,4.82
2017-06-03T16:57:44.189Z,4.90
2017-06-03T17:00:11.706Z,4.68
2017-06-03T17:02:39.288Z,4.85
2017-06-03T17:05:06.792Z,4.72
2017-06-03T17:07:34.289Z,3.83
2017-06-03T17:10:02.587Z,4.90
2017-06-03T17:12:30.107Z,5.28
2017-06-03T17:14:58.184Z,4.60
2017-06-03T17:17:25.722Z,4.87
2017-06-03T17:19:53.303Z,4.47
2017-06-03T17:22:20.851Z,4.65
2017-06-03T17:24:48.455Z,4.75
2017-06-03T17:27:16.029Z,6.85
2017-06-03T17:29:43.563Z,5.50
2017-06-03T17:32:11.099Z,4.45
2017-06-03T17:34:38.618Z,5.07
2017-06-03T17:37:06.137Z,5.95
2017-06-03T17:39:33.651Z,5.25
2017-06-03T17:42:01.193Z,5.37
2017-06-03T17:44:28.727Z,5.28
2017-06-03T17:46:56.219Z,5.05
2017-06-03T17:49:23.735Z,4.82
2017-06-03T17:51:52.020Z,5.57
2017-06-03T17:54:20.316Z,5.47
2017-06-03T17:56:47.833Z,6.55
2017-06-03T17:59:15.481Z,6.10
2017-06-03T18:01:42.978Z,6.37
2017-06-03T18:04:10.539Z,5.30
2017-06-03T18:06:38.890Z,5.78
2017-06-03T18:09:06.406Z,6.05
2017-06-03T18:11:33.945Z,6.20
2017-06-03T18:14:01.469Z,5.97
2017-06-03T18:16:28.971Z,6.70
2017-06-03T18:18:56.512Z,6.37
2017-06-03T18:21:24.858Z,5.35
2017-06-03T18:23:52.378Z,6.80
2017-06-03T18:26:19.910Z,6.75
2017-06-03T18:28:48.224Z,6.12
2017-06-03T18:31:16.205Z,6.03
2017-06-03T18:33:43.728Z,7.80
2017-06-03T18:36:11.301Z,8.90
2017-06-03T18:38:38.814Z,9.05
2017-06-03T18:41:06.434Z,6.90
2017-06-03T18:43:33.969Z,12.48
2017-06-03T18:46:01.499Z,7.20
2017-06-03T18:48:29.140Z,8.38
2017-06-03T18:50:56.648Z,7.22
2017-06-03T18:53:24.194Z,7.55
2017-06-03T18:55:52.493Z,6.45
2017-06-03T18:58:20.095Z,5.43
2017-06-03T19:00:47.641Z,7.65
2017-06-03T19:03:15.151Z,7.25
2017-06-03T19:05:42.654Z,9.30
2017-06-03T19:08:10.194Z,9.00
2017-06-03T19:10:37.731Z,8.57
2017-06-03T19:13:05.247Z,7.87
2017-06-03T19:15:32.781Z,8.27
2017-06-03T19:18:00.298Z,8.65
2017-06-03T19:20:29.227Z,7.15
2017-06-03T19:22:56.919Z,7.65
2017-06-03T19:25:25.305Z,6.87
2017-06-03T19:27:52.856Z,8.20
2017-06-03T19:30:20.376Z,8.60
2017-06-03T19:32:48.707Z,7.90
2017-06-03T19:35:16.217Z,7.65
2017-06-03T19:37:43.739Z,7.72
2017-06-03T19:40:11.402Z,7.00
2017-06-03T19:42:38.992Z,7.35
2017-06-03T19:45:06.582Z,7.87
2017-06-03T19:47:34.276Z,7.35
2017-06-03T19:50:02.615Z,7.22
2017-06-03T19:52:30.168Z,12.32
2017-06-03T19:54:57.706Z,8.20
2017-06-03T19:57:25.247Z,8.27
2017-06-03T19:59:52.812Z,7.55
2017-06-03T20:02:20.333Z,7.03
2017-06-03T20:04:47.900Z,6.40
2017-06-03T20:07:15.486Z,7.53
2017-06-03T20:09:43.070Z,7.75
2017-06-03T20:12:10.665Z,8.80
2017-06-03T20:14:38.195Z,8.75
2017-06-03T20:17:05.739Z,7.60
2017-06-03T20:19:34.041Z,7.93
2017-06-03T20:22:01.578Z,8.90
2017-06-03T20:24:29.141Z,8.50
2017-06-03T20:26:57.424Z,9.38
2017-06-03T20:29:25.734Z,9.05
2017-06-03T20:31:53.310Z,8.30
2017-06-03T20:34:20.831Z,9.30
2017-06-03T20:36:48.367Z,8.82
2017-06-03T20:39:15.889Z,9.35
2017-06-03T20:41:43.386Z,7.70
2017-06-03T20:44:10.904Z,8.48
2017-06-03T20:46:38.442Z,8.25
2017-06-03T20:49:05.983Z,8.77
2017-06-03T20:51:34.262Z,9.18
2017-06-03T20:54:02.519Z,8.88
2017-06-03T20:56:30.775Z,8.15
2017-06-03T20:58:58.309Z,8.48
2017-06-03T21:01:25.866Z,11.48
2017-06-03T21:03:53.464Z,10.20
2017-06-03T21:06:20.987Z,9.45
2017-06-03T21:08:48.517Z,8.18
2017-06-03T21:11:16.830Z,17.35
2017-06-03T21:13:44.337Z,8.75
2017-06-03T21:16:11.918Z,13.73
2017-06-03T21:18:39.427Z,12.27
2017-06-03T21:21:06.983Z,9.25
2017-06-03T21:23:34.501Z,10.80
2017-06-03T21:43:20.227Z,11.88
2017-06-03T21:45:47.727Z,10.77
2017-06-03T21:48:15.250Z,11.07
2017-06-03T21:50:42.777Z,12.98
2017-06-03T21:53:10.287Z,11.63
2017-06-03T21:55:37.847Z,14.38
2017-06-03T21:58:05.351Z,11.15
2017-06-03T22:00:32.881Z,11.77
2017-06-03T22:03:00.430Z,11.27
2017-06-03T22:05:27.946Z,13.40
2017-06-03T22:07:55.480Z,11.90
2017-06-03T22:10:23.784Z,10.63
2017-06-03T22:12:51.321Z,11.70
2017-06-03T22:15:18.843Z,10.80
2017-06-03T22:17:46.354Z,12.00
2017-06-03T22:20:14.279Z,13.80
2017-06-03T22:22:41.854Z,13.73
2017-06-03T22:25:09.377Z,17.42
2017-06-03T22:27:36.887Z,15.80
2017-06-03T22:30:04.551Z,14.48
2017-06-03T22:32:32.081Z,16.00
2017-06-03T22:34:59.672Z,13.20
2017-06-03T22:37:27.205Z,13.73
2017-06-03T22:39:54.739Z,13.80
2017-06-03T22:42:22.256Z,12.00
2017-06-03T22:44:49.808Z,13.25
2017-06-03T22:47:17.380Z,14.70
2017-06-03T22:49:44.900Z,14.52
2017-06-03T22:52:12.403Z,17.45
2017-06-03T22:54:39.914Z,19.92
2017-06-03T22:57:07.471Z,15.32
2017-06-03T22:59:34.998Z,14.43
2017-06-03T23:02:02.526Z,14.60
2017-06-03T23:04:30.032Z,15.65
2017-06-03T23:06:59.272Z,15.75
2017-06-03T23:09:26.841Z,13.52
2017-06-03T23:11:55.196Z,16.02
2017-06-03T23:14:22.701Z,15.02
2017-06-03T23:16:50.219Z,16.77
2017-06-03T23:19:17.776Z,17.17
2017-06-03T23:21:45.289Z,15.95
2017-06-03T23:24:12.799Z,17.48
2017-06-03T23:26:40.326Z,18.70
2017-06-03T23:29:07.838Z,17.83
2017-06-03T23:31:35.356Z,17.17
2017-06-03T23:34:03.439Z,16.27
2017-06-03T23:36:31.274Z,14.55
2017-06-03T23:38:58.956Z,15.18
2017-06-03T23:41:26.523Z,16.25
2017-06-03T23:43:54.027Z,18.92
2017-06-03T23:46:21.545Z,17.95
2017-06-03T23:48:49.062Z,17.48
2017-06-03T23:51:16.574Z,16.80
2017-06-03T23:53:44.906Z,17.98
2017-06-03T23:56:12.409Z,18.02
2017-06-03T23:58:39.959Z,18.10
